Terminal Aerodrome Forecast
Issued by NWS Sterling, VA

Home | Current Version | Previous Version | Text Only | Print | Product List | Glossary On
Versions: 1 2 3 4 5 6 7 8 9 10 11 12 13 14 15 16 17 18 19 20 21
000
FTUS41 KLWX 311736
TAFIAD
TAF
KIAD 311736Z 3118/0124 25005KT P6SM VCSH SCT050 BKN150
     FM312300 22006KT P6SM BKN150
     FM010300 21007KT P6SM SCT120
     FM010700 VRB03KT P6SM SCT250
     FM012200 22004KT P6SM SCT050=

USA.gov is the U.S. government's official web portal to all federal, state and local government web resources and services.